Burnwood, New York
Current Conditions -  °F | °C
As of 10:55 PM on Sunday 23 Nov 2014 (Local Time) from KMSV Reporting Station
Broken Clouds Broken Clouds  
Wind Chill: 37°   Ceiling: 3800
Heat Index: 41°   Visibility: 10mi
Dew Point: 28°   Wind: 6mph
Humidity: 61%   Direction: 90°E
Pressure: 30"   Gusts: NA
Location:  41.9811°N, 75.0952°W
Report Text: KMSV 240355Z AUTO 09005KT 10SM BKN038 05/M02 A3000 RMK AO1
Loading
Personal Weather Stations






























Interactive Weather Map New forecast layout! Learn more

10-Day Weather Forecast

Advertisements
Track Severe Weather on mobile